Time;durP1;ratioP1;P1;durP2;ratioP2;P2;SDS_P1;SDS_P2;PMS_P1;PMS_P2;Temp;Humidity;BMP_temperature;BMP_pressure;BME280_temperature;BME280_humidity;BME280_pressure;Samples;Min_cycle;Max_cycle;Signal;HPM_P1;HPM_P2
2023/03/14 00:00:12;;;;;;;2.20;1.50;;;20.30;64.80;;;;;;4801544;29;92574;-81
2023/03/14 00:02:38;;;;;;;2.05;1.45;;;20.40;64.70;;;;;;4801150;29;94644;-81
2023/03/14 00:05:06;;;;;;;2.28;1.20;;;20.30;64.90;;;;;;4802352;29;94302;-82
2023/03/14 00:07:39;;;;;;;2.10;1.40;;;20.30;64.80;;;;;;4801400;29;92280;-81
2023/03/14 00:10:08;;;;;;;2.33;1.20;;;20.30;64.90;;;;;;4800871;29;92222;-82
2023/03/14 00:12:34;;;;;;;;;;;20.30;64.70;;;;;;4793224;29;94518;-81
2023/03/14 00:15:06;;;;;;;2.47;1.30;;;20.20;64.70;;;;;;4793326;29;92649;-81
2023/03/14 00:17:33;;;;;;;4.10;1.60;;;20.30;64.60;;;;;;4792452;29;92422;-82
2023/03/14 00:20:04;;;;;;;1.92;1.40;;;20.20;64.60;;;;;;4792698;29;91384;-82
2023/03/14 00:22:31;;;;;;;5.15;1.67;;;20.20;64.80;;;;;;4775964;29;97030;-81
2023/03/14 00:24:57;;;;;;;2.67;1.40;;;20.20;64.70;;;;;;4792702;29;93369;-81
2023/03/14 00:27:22;;;;;;;2.42;1.48;;;20.20;64.90;;;;;;4791653;29;93031;-81
2023/03/14 00:29:48;;;;;;;2.72;1.40;;;20.20;65.00;;;;;;4792865;29;91953;-82
2023/03/14 00:32:14;;;;;;;2.33;1.50;;;20.20;65.00;;;;;;4793350;29;93054;-81
2023/03/14 00:34:39;;;;;;;2.88;1.45;;;20.20;64.80;;;;;;4790659;29;93163;-81
2023/03/14 00:37:06;;;;;;;3.85;1.48;;;20.20;64.80;;;;;;4792673;29;92573;-81
2023/03/14 00:39:31;;;;;;;2.28;1.33;;;20.10;64.80;;;;;;4791782;29;92522;-81
2023/03/14 00:41:57;;;;;;;2.92;1.27;;;20.10;65.00;;;;;;4760191;29;93437;-81
2023/03/14 00:44:23;;;;;;;2.85;1.30;;;20.10;64.90;;;;;;4795804;29;92670;-80
2023/03/14 00:46:48;;;;;;;2.17;1.35;;;20.10;64.70;;;;;;4795326;29;92495;-81
2023/03/14 00:49:14;;;;;;;1.85;1.27;;;20.10;64.80;;;;;;4795137;29;92559;-81
2023/03/14 00:51:40;;;;;;;2.60;1.30;;;20.10;64.70;;;;;;4793303;29;93631;-81
2023/03/14 00:54:05;;;;;;;2.75;1.40;;;20.10;64.80;;;;;;4795336;29;94183;-81
2023/03/14 00:56:31;;;;;;;2.47;1.58;;;20.10;64.80;;;;;;4795052;29;92261;-81
2023/03/14 00:58:57;;;;;;;2.25;1.52;;;20.10;64.70;;;;;;4795049;29;92605;-80
2023/03/14 01:01:23;;;;;;;2.63;1.40;;;20.10;64.80;;;;;;4794467;29;94587;-82
2023/03/14 01:03:53;;;;;;;2.97;1.45;;;20.10;64.80;;;;;;4793916;29;92685;-81
2023/03/14 01:06:24;;;;;;;1.92;1.33;;;20.10;64.60;;;;;;4794134;29;92884;-81
2023/03/14 01:08:50;;;;;;;3.15;1.67;;;20.10;64.80;;;;;;4794431;29;91340;-81
2023/03/14 01:11:19;;;;;;;1.65;1.30;;;20.00;64.60;;;;;;4795927;29;93603;-81
2023/03/14 01:13:45;;;;;;;2.58;1.30;;;20.00;64.80;;;;;;4803297;29;92811;-82
2023/03/14 01:16:13;;;;;;;2.97;1.25;;;20.00;64.70;;;;;;4802973;29;94271;-82
2023/03/14 01:18:40;;;;;;;2.63;1.75;;;20.00;64.90;;;;;;4802595;29;92297;-81
2023/03/14 01:21:19;;;;;;;1.80;1.45;;;20.00;64.70;;;;;;4803124;29;93650;-82
2023/03/14 01:23:45;;;;;;;2.25;1.38;;;20.00;64.70;;;;;;4803480;29;93463;-83
2023/03/14 01:26:12;;;;;;;1.60;1.42;;;20.00;65.50;;;;;;4804748;29;92178;-83
2023/03/14 01:28:38;;;;;;;4.10;1.60;;;20.00;64.80;;;;;;4804081;29;91916;-83
2023/03/14 01:31:10;;;;;;;2.25;1.48;;;20.00;64.70;;;;;;4803069;29;93789;-83
2023/03/14 01:33:36;;;;;;;1.95;1.13;;;20.00;64.70;;;;;;4803237;29;93455;-83
2023/03/14 01:36:03;;;;;;;2.00;1.40;;;19.90;64.70;;;;;;4804159;29;92242;-83
2023/03/14 01:38:30;;;;;;;2.03;1.40;;;20.00;64.70;;;;;;4803018;29;92460;-83
2023/03/14 01:40:56;;;;;;;2.10;1.40;;;19.90;64.70;;;;;;4803407;29;93586;-83
2023/03/14 01:43:24;;;;;;;3.80;1.55;;;20.00;64.80;;;;;;4802858;29;94043;-83
2023/03/14 01:46:05;;;;;;;1.88;1.10;;;19.90;64.90;;;;;;4777789;29;92453;-83
2023/03/14 01:48:52;;;;;;;1.38;1.08;;;19.90;64.70;;;;;;4802942;29;92662;-82
2023/03/14 01:51:25;;;;;;;2.00;1.15;;;19.90;64.70;;;;;;4803352;29;93757;-82
2023/03/14 01:53:52;;;;;;;1.83;1.05;;;19.90;64.70;;;;;;4802841;29;93455;-83
2023/03/14 01:56:19;;;;;;;1.40;1.20;;;19.90;64.80;;;;;;4804108;29;92376;-83
2023/03/14 01:58:49;;;;;;;2.70;1.33;;;19.90;64.70;;;;;;4803142;29;91658;-83
2023/03/14 02:01:18;;;;;;;1.73;1.33;;;19.90;64.90;;;;;;4803186;29;92759;-82
2023/03/14 02:03:50;;;;;;;1.55;1.08;;;19.80;64.70;;;;;;4802887;29;93332;-83
2023/03/14 02:06:19;;;;;;;2.05;1.23;;;19.90;64.70;;;;;;4802548;29;93259;-82
2023/03/14 02:08:48;;;;;;;2.28;1.23;;;19.90;64.80;;;;;;4803020;29;92354;-83
2023/03/14 02:11:14;;;;;;;2.10;1.27;;;19.90;64.70;;;;;;4803346;29;93242;-82
2023/03/14 02:13:39;;;;;;;1.13;0.93;;;19.90;64.80;;;;;;4802592;29;94113;-83
2023/03/14 02:16:06;;;;;;;1.95;1.23;;;19.90;64.80;;;;;;4802482;29;92068;-83
2023/03/14 02:18:32;;;;;;;2.25;1.48;;;19.80;64.70;;;;;;4785719;29;92563;-83
2023/03/14 02:21:04;;;;;;;2.15;1.33;;;19.80;64.60;;;;;;4802547;29;93528;-83
2023/03/14 02:23:44;;;;;;;2.00;1.23;;;19.80;64.70;;;;;;4802543;29;93134;-82
2023/03/14 02:26:17;;;;;;;1.70;1.20;;;19.80;64.60;;;;;;4803644;29;92055;-83
2023/03/14 02:28:43;;;;;;;1.65;0.98;;;19.80;64.50;;;;;;4802438;29;92594;-83
2023/03/14 02:31:08;;;;;;;2.38;1.30;;;19.80;64.50;;;;;;4802435;29;93583;-83
2023/03/14 02:33:37;;;;;;;2.47;1.27;;;19.80;64.60;;;;;;4802511;29;94221;-82
2023/03/14 02:36:07;;;;;;;2.05;1.50;;;19.80;64.50;;;;;;4802663;29;92509;-82
2023/03/14 02:38:55;;;;;;;1.85;1.00;;;19.80;64.80;;;;;;4802339;29;92479;-82
2023/03/14 02:41:21;;;;;;;1.77;1.20;;;19.80;64.40;;;;;;4802732;29;93715;-83
2023/03/14 02:43:47;;;;;;;1.60;1.00;;;19.80;64.70;;;;;;4802028;29;92726;-83
2023/03/14 02:46:16;;;;;;;2.08;1.20;;;19.80;64.60;;;;;;4803063;29;92028;-82
2023/03/14 02:49:03;;;;;;;2.25;1.30;;;19.80;64.70;;;;;;4802408;29;91604;-83
2023/03/14 02:51:29;;;;;;;2.05;1.20;;;19.70;64.60;;;;;;4802200;29;93700;-83
2023/03/14 02:54:04;;;;;;;1.75;1.40;;;19.70;64.50;;;;;;4802336;29;92799;-83
2023/03/14 02:56:29;;;;;;;3.28;1.60;;;19.70;64.60;;;;;;4802018;29;93540;-82
2023/03/14 02:58:57;;;;;;;1.30;1.15;;;19.70;64.80;;;;;;4803429;29;92135;-82
2023/03/14 03:01:23;;;;;;;1.52;1.10;;;19.70;64.70;;;;;;4802688;29;92672;-83
2023/03/14 03:03:49;;;;;;;2.10;1.30;;;19.70;64.80;;;;;;4802506;29;93102;-83
2023/03/14 03:06:15;;;;;;;2.30;1.10;;;19.70;64.70;;;;;;4801067;29;92508;-83
2023/03/14 03:08:40;;;;;;;1.85;1.25;;;19.70;65.50;;;;;;4801875;29;92588;-82
2023/03/14 03:11:07;;;;;;;2.50;1.20;;;19.70;64.70;;;;;;4802163;29;92735;-83
2023/03/14 03:13:35;;;;;;;1.55;1.02;;;19.70;64.70;;;;;;4802370;29;93307;-83
2023/03/14 03:16:01;;;;;;;2.50;1.10;;;19.60;64.50;;;;;;4802296;29;92541;-83
2023/03/14 03:18:26;;;;;;;1.85;1.30;;;19.70;64.70;;;;;;4801855;29;92468;-82
2023/03/14 03:20:52;;;;;;;2.45;1.20;;;19.60;64.70;;;;;;4800679;29;93427;-83
2023/03/14 03:23:18;;;;;;;1.52;1.20;;;19.60;64.50;;;;;;4802151;29;94346;-83
2023/03/14 03:25:49;;;;;;;1.33;0.98;;;19.60;64.70;;;;;;4802826;29;92619;-82
2023/03/14 03:28:15;;;;;;;2.22;1.20;;;19.60;64.50;;;;;;4801448;29;92546;-82
2023/03/14 03:30:41;;;;;;;2.33;1.17;;;19.60;64.50;;;;;;4801669;29;92840;-83
2023/03/14 03:33:07;;;;;;;1.20;1.00;;;19.60;64.50;;;;;;4801156;29;92703;-82
2023/03/14 03:35:33;;;;;;;1.40;1.05;;;19.60;64.50;;;;;;4802142;29;92611;-82
2023/03/14 03:37:59;;;;;;;1.73;1.00;;;19.60;64.50;;;;;;4783806;29;91710;-83
2023/03/14 03:40:24;;;;;;;2.22;1.38;;;19.60;64.50;;;;;;4782344;29;92943;-83
2023/03/14 03:42:50;;;;;;;2.28;1.30;;;19.60;64.70;;;;;;4801426;29;92508;-83
2023/03/14 03:45:16;;;;;;;1.63;1.10;;;19.60;64.70;;;;;;4801038;29;93583;-82
2023/03/14 03:47:41;;;;;;;1.92;1.10;;;19.50;64.50;;;;;;4801624;29;92495;-83
2023/03/14 03:50:08;;;;;;;1.73;1.10;;;19.50;64.60;;;;;;4802392;29;93528;-82
2023/03/14 03:52:33;;;;;;;3.10;1.20;;;19.50;64.60;;;;;;4801716;29;92703;-82
2023/03/14 03:54:59;;;;;;;1.17;0.88;;;19.50;64.80;;;;;;4802315;29;92466;-82
2023/03/14 03:57:25;;;;;;;1.35;0.98;;;19.50;64.60;;;;;;4801345;29;92848;-83
2023/03/14 03:59:50;;;;;;;1.35;1.00;;;19.50;64.70;;;;;;4801410;29;93102;-82
2023/03/14 04:02:16;;;;;;;2.30;1.13;;;19.50;64.60;;;;;;4802202;29;93727;-82
2023/03/14 04:04:42;;;;;;;1.67;1.25;;;19.50;64.70;;;;;;4801250;29;92660;-82
2023/03/14 04:07:07;;;;;;;2.05;1.38;;;19.50;64.60;;;;;;4800677;29;92485;-83
2023/03/14 04:09:33;;;;;;;1.45;1.00;;;19.50;64.60;;;;;;4800938;29;95570;-83
2023/03/14 04:11:58;;;;;;;2.35;1.30;;;19.50;64.70;;;;;;4800210;29;94302;-83
2023/03/14 04:14:24;;;;;;;2.10;1.10;;;19.50;64.60;;;;;;4801985;29;92588;-83
2023/03/14 04:16:50;;;;;;;1.55;0.90;;;19.40;64.60;;;;;;4802619;29;92053;-83
2023/03/14 04:19:15;;;;;;;1.30;1.00;;;19.40;64.60;;;;;;4803444;29;93180;-83
2023/03/14 04:21:44;;;;;;;1.63;1.00;;;19.40;64.70;;;;;;4804936;29;92673;-82
2023/03/14 04:24:10;;;;;;;2.38;1.10;;;19.40;64.50;;;;;;4804311;29;92392;-83
2023/03/14 04:26:36;;;;;;;1.48;1.00;;;19.40;64.70;;;;;;4804872;29;91851;-83
2023/03/14 04:29:01;;;;;;;0.90;0.70;;;19.40;64.60;;;;;;4805281;29;92854;-82
2023/03/14 04:31:28;;;;;;;3.42;1.33;;;19.40;64.50;;;;;;4803893;29;93104;-83
2023/03/14 04:34:11;;;;;;;1.98;1.13;;;19.40;64.60;;;;;;4803733;29;93022;-83
2023/03/14 04:36:37;;;;;;;1.48;0.98;;;19.40;64.50;;;;;;4804771;29;99287;-83
2023/03/14 04:39:04;;;;;;;1.55;1.00;;;19.40;64.60;;;;;;4804343;29;93547;-83
2023/03/14 04:41:29;;;;;;;1.67;1.02;;;19.40;64.60;;;;;;4786935;29;95012;-82
2023/03/14 04:43:56;;;;;;;1.30;1.10;;;19.40;64.60;;;;;;4805102;29;91989;-83
2023/03/14 04:46:21;;;;;;;2.28;0.90;;;19.40;64.40;;;;;;4804160;29;91980;-83
2023/03/14 04:48:47;;;;;;;1.25;1.02;;;19.30;64.50;;;;;;4803866;29;93195;-83
2023/03/14 04:51:12;;;;;;;1.13;1.00;;;19.40;64.60;;;;;;4804148;29;93207;-82
2023/03/14 04:53:38;;;;;;;1.08;0.85;;;19.40;64.60;;;;;;4804353;29;93351;-83
2023/03/14 04:56:04;;;;;;;1.45;1.00;;;19.30;64.50;;;;;;4804981;29;92014;-82
2023/03/14 04:58:30;;;;;;;1.08;0.95;;;19.40;64.60;;;;;;4803382;29;94109;-83
2023/03/14 05:00:55;;;;;;;1.33;0.93;;;19.30;64.40;;;;;;4803919;29;94088;-83
2023/03/14 05:03:21;;;;;;;1.77;1.20;;;19.30;64.60;;;;;;4803488;29;92334;-83
2023/03/14 05:05:47;;;;;;;1.55;1.20;;;19.30;64.40;;;;;;4803604;29;92347;-83
2023/03/14 05:08:12;;;;;;;1.25;0.82;;;19.30;64.40;;;;;;4803413;29;93090;-83
2023/03/14 05:10:38;;;;;;;1.60;1.00;;;19.30;64.50;;;;;;4802848;29;92829;-82
2023/03/14 05:13:04;;;;;;;1.33;0.90;;;19.30;64.40;;;;;;4803783;29;92883;-83
2023/03/14 05:15:29;;;;;;;1.63;1.13;;;19.30;64.50;;;;;;4803604;29;91941;-83
2023/03/14 05:17:55;;;;;;;2.22;1.13;;;19.30;64.50;;;;;;4786180;29;94458;-83
2023/03/14 05:20:21;;;;;;;1.20;0.80;;;19.30;64.40;;;;;;4803971;29;92884;-82
2023/03/14 05:22:47;;;;;;;1.63;1.02;;;19.30;64.30;;;;;;4802942;29;93461;-83
2023/03/14 05:25:13;;;;;;;1.52;1.13;;;19.30;64.30;;;;;;4799539;29;92493;-82
2023/03/14 05:27:38;;;;;;;0.98;0.88;;;19.20;64.10;;;;;;4800272;29;93154;-82
2023/03/14 05:30:06;;;;;;;1.95;1.30;;;19.20;64.30;;;;;;4798803;29;92818;-82
2023/03/14 05:32:32;;;;;;;1.33;0.93;;;19.20;64.30;;;;;;4799388;29;92424;-82
2023/03/14 05:34:59;;;;;;;1.25;1.00;;;19.20;64.30;;;;;;4800394;29;91964;-82
2023/03/14 05:37:26;;;;;;;1.67;1.00;;;19.30;64.40;;;;;;4802976;29;92276;-82
2023/03/14 05:39:51;;;;;;;1.10;0.70;;;19.20;64.20;;;;;;4803068;29;93354;-83
2023/03/14 05:42:17;;;;;;;1.20;0.85;;;19.20;64.20;;;;;;4803618;29;92613;-83
2023/03/14 05:44:43;;;;;;;1.63;1.15;;;19.20;64.30;;;;;;4795011;29;92330;-83
2023/03/14 05:47:08;;;;;;;1.45;1.08;;;19.20;64.10;;;;;;4798772;29;93731;-83
2023/03/14 05:49:34;;;;;;;1.00;0.90;;;19.20;64.30;;;;;;4802466;29;93802;-83
2023/03/14 05:51:59;;;;;;;1.25;0.77;;;19.20;64.40;;;;;;4803455;29;92341;-83
2023/03/14 05:54:25;;;;;;;1.40;1.00;;;19.20;64.20;;;;;;4803050;29;92451;-83
2023/03/14 05:56:51;;;;;;;1.77;1.00;;;19.20;64.30;;;;;;4802776;29;93634;-83
2023/03/14 05:59:16;;;;;;;1.20;0.90;;;19.20;64.30;;;;;;4803772;29;92317;-82
2023/03/14 06:01:42;;;;;;;1.38;0.90;;;19.20;64.40;;;;;;4803389;29;92289;-82
2023/03/14 06:04:08;;;;;;;1.42;1.08;;;19.20;64.40;;;;;;4803291;29;91863;-83
2023/03/14 06:06:33;;;;;;;1.40;1.00;;;19.20;64.30;;;;;;4802045;29;93472;-83
2023/03/14 06:08:59;;;;;;;1.08;0.80;;;19.10;64.40;;;;;;4802713;29;92637;-82
2023/03/14 06:11:25;;;;;;;2.10;0.93;;;19.20;64.40;;;;;;4801599;29;93626;-82
2023/03/14 06:13:51;;;;;;;1.27;0.90;;;19.10;64.30;;;;;;4802970;29;92044;-83
2023/03/14 06:16:17;;;;;;;1.30;1.17;;;19.10;64.60;;;;;;4802678;29;91965;-83
2023/03/14 06:18:42;;;;;;;1.50;1.08;;;19.10;64.40;;;;;;4802574;29;92793;-82
2023/03/14 06:21:08;;;;;;;1.17;0.85;;;19.10;64.30;;;;;;4803297;29;92417;-82
2023/03/14 06:23:34;;;;;;;1.10;0.80;;;19.10;64.10;;;;;;4802937;29;92031;-83
2023/03/14 06:25:59;;;;;;;1.55;1.05;;;19.10;64.20;;;;;;4802447;29;92742;-83
2023/03/14 06:28:25;;;;;;;0.90;0.73;;;19.10;64.40;;;;;;4802991;29;93358;-82
2023/03/14 06:30:51;;;;;;;1.95;1.08;;;19.10;64.40;;;;;;4803167;29;91949;-83
2023/03/14 06:33:16;;;;;;;1.52;1.00;;;19.10;64.40;;;;;;4802302;29;92498;-82
2023/03/14 06:35:42;;;;;;;1.17;0.82;;;19.10;64.40;;;;;;4784509;29;98318;-83
2023/03/14 06:38:08;;;;;;;0.90;0.80;;;19.10;64.40;;;;;;4803217;29;93823;-83
2023/03/14 06:40:33;;;;;;;2.30;0.93;;;19.10;64.30;;;;;;4802850;29;92178;-82
2023/03/14 06:42:59;;;;;;;1.83;1.00;;;19.10;64.30;;;;;;4802764;29;92436;-83
2023/03/14 06:45:24;;;;;;;0.95;0.80;;;19.10;64.40;;;;;;4802156;29;91941;-83
2023/03/14 06:47:50;;;;;;;2.85;0.90;;;19.10;64.40;;;;;;4802266;29;93283;-83
2023/03/14 06:50:16;;;;;;;1.55;1.10;;;19.10;64.30;;;;;;4802540;29;92542;-83
2023/03/14 06:52:47;;;;;;;1.48;0.88;;;19.10;64.10;;;;;;4803215;29;91725;-83
2023/03/14 06:55:16;;;;;;;1.52;0.90;;;19.10;64.20;;;;;;4802557;29;93248;-84
2023/03/14 06:57:42;;;;;;;1.27;0.95;;;19.10;64.40;;;;;;4802207;29;92915;-82
2023/03/14 07:00:09;;;;;;;1.48;0.90;;;19.10;65.10;;;;;;4802067;29;92946;-83
2023/03/14 07:02:34;;;;;;;1.52;1.05;;;19.10;65.40;;;;;;4802425;29;92755;-83
2023/03/14 07:05:00;;;;;;;1.60;0.93;;;19.10;64.70;;;;;;4804525;29;93165;-81
2023/03/14 07:07:27;;;;;;;2.28;1.30;;;19.20;65.00;;;;;;4802156;29;92469;-83
2023/03/14 07:09:53;;;;;;;3.03;1.30;;;19.20;65.50;;;;;;4800597;29;91931;-81
2023/03/14 07:12:19;;;;;;;2.45;1.00;;;19.20;65.60;;;;;;4791976;29;92872;-82
2023/03/14 07:14:44;;;;;;;9.80;1.35;;;19.20;65.70;;;;;;4789961;29;93430;-83
2023/03/14 07:17:10;;;;;;;2.05;1.27;;;19.20;63.50;;;;;;4794692;29;92430;-83
2023/03/14 07:19:37;;;;;;;1.92;1.15;;;19.30;65.30;;;;;;4792292;29;92046;-82
2023/03/14 07:22:04;;;;;;;2.35;1.27;;;19.40;65.40;;;;;;4792092;29;92351;-83
2023/03/14 07:24:29;;;;;;;2.25;1.20;;;19.50;65.20;;;;;;4791943;29;94222;-83
2023/03/14 07:26:55;;;;;;;3.60;1.25;;;19.50;65.00;;;;;;4793561;29;94697;-83
2023/03/14 07:29:20;;;;;;;2.33;1.00;;;19.60;64.70;;;;;;4793950;29;91941;-83
2023/03/14 07:31:49;;;;;;;2.85;1.20;;;19.70;64.50;;;;;;4793805;29;92200;-83
2023/03/14 07:34:19;;;;;;;2.85;1.25;;;19.70;64.20;;;;;;4768487;29;95664;-82
2023/03/14 07:36:45;;;;;;;;;;;19.80;64.30;;;;;;4794112;29;96337;-82
2023/03/14 07:39:10;;;;;;;2.70;1.33;;;19.90;64.20;;;;;;4781288;29;92251;-82
2023/03/14 07:41:36;;;;;;;2.40;1.20;;;19.90;64.20;;;;;;4791104;29;91625;-83
2023/03/14 07:44:01;;;;;;;2.03;1.23;;;19.90;64.50;;;;;;4792866;29;91955;-82
2023/03/14 07:46:27;;;;;;;1.77;1.10;;;19.90;64.50;;;;;;4774325;29;93747;-83
2023/03/14 07:48:53;;;;;;;1.77;0.95;;;19.90;64.00;;;;;;4792759;29;93372;-82
2023/03/14 07:51:18;;;;;;;1.35;1.00;;;19.90;64.10;;;;;;4792125;29;92076;-83
2023/03/14 07:53:45;;;;;;;2.25;1.17;;;19.90;64.10;;;;;;4792980;29;93205;-82
2023/03/14 07:56:11;;;;;;;2.20;1.13;;;19.90;64.10;;;;;;4794508;29;93662;-83
2023/03/14 07:58:36;;;;;;;2.22;1.10;;;19.90;64.20;;;;;;4792839;29;92086;-82
2023/03/14 08:01:03;;;;;;;2.03;1.02;;;19.90;62.80;;;;;;4792246;29;92785;-82
2023/03/14 08:03:30;;;;;;;5.25;1.63;;;19.80;62.80;;;;;;4794362;29;92235;-80
2023/03/14 08:05:56;;;;;;;4.78;2.13;;;19.80;63.70;;;;;;4794366;29;93009;-81
2023/03/14 08:08:21;;;;;;;6.38;2.15;;;19.80;65.00;;;;;;4771618;29;94519;-81
2023/03/14 08:10:47;;;;;;;4.47;2.03;;;19.70;65.70;;;;;;4791930;29;92454;-81
2023/03/14 08:13:13;;;;;;;5.13;2.20;;;19.70;65.80;;;;;;4802501;29;94427;-81
2023/03/14 08:15:39;;;;;;;4.20;1.50;;;19.70;65.40;;;;;;4802718;29;93802;-80
2023/03/14 08:18:05;;;;;;;6.38;1.70;;;19.70;66.20;;;;;;4802887;29;92102;-81
2023/03/14 08:20:31;;;;;;;3.67;1.52;;;19.70;65.90;;;;;;4783933;29;92054;-81
2023/03/14 08:23:01;;;;;;;3.97;1.70;;;19.70;65.30;;;;;;4804562;29;93727;-81
2023/03/14 08:25:28;;;;;;;3.08;1.23;;;19.80;65.70;;;;;;4803639;29;93269;-80
2023/03/14 08:27:54;;;;;;;3.72;1.58;;;19.70;65.00;;;;;;4803935;29;92561;-81
2023/03/14 08:30:21;;;;;;;3.88;1.55;;;19.80;64.80;;;;;;4805968;29;91344;-82
2023/03/14 08:32:47;;;;;;;5.18;1.80;;;19.80;64.80;;;;;;4804461;29;93704;-81
2023/03/14 08:35:14;;;;;;;5.07;1.63;;;19.80;64.80;;;;;;4804733;29;92661;-81
2023/03/14 08:37:40;;;;;;;9.85;2.00;;;19.70;65.20;;;;;;4802220;29;93117;-81
2023/03/14 08:40:06;;;;;;;10.82;2.47;;;19.70;65.00;;;;;;4802518;29;92141;-81
2023/03/14 08:42:35;;;;;;;12.43;2.55;;;19.80;64.90;;;;;;4802755;29;93481;-81
2023/03/14 08:45:01;;;;;;;7.97;1.98;;;19.90;64.90;;;;;;4783743;29;96863;-81
2023/03/14 08:47:27;;;;;;;10.18;2.40;;;19.90;63.60;;;;;;4802306;29;92537;-81
2023/03/14 08:49:53;;;;;;;6.20;2.55;;;19.90;64.40;;;;;;4803730;29;92716;-80
2023/03/14 08:52:18;;;;;;;5.03;2.10;;;19.80;64.50;;;;;;4800849;29;95288;-81
2023/03/14 08:54:44;;;;;;;9.38;2.30;;;19.80;64.70;;;;;;4802559;29;92695;-81
2023/03/14 08:57:10;;;;;;;10.35;2.72;;;19.80;64.80;;;;;;4802703;29;92592;-81
2023/03/14 08:59:36;;;;;;;9.73;2.80;;;19.80;64.90;;;;;;4801676;29;92286;-81
2023/03/14 09:02:03;;;;;;;11.70;2.63;;;19.80;65.00;;;;;;4802724;29;94819;-81
2023/03/14 09:04:29;;;;;;;8.32;2.47;;;19.80;64.90;;;;;;4801361;29;93345;-81
2023/03/14 09:06:57;;;;;;;9.27;2.45;;;19.70;65.00;;;;;;4802147;29;92558;-80
2023/03/14 09:09:23;;;;;;;8.55;2.70;;;19.80;65.00;;;;;;4801475;29;92854;-80
2023/03/14 09:11:50;;;;;;;8.65;2.97;;;19.80;65.10;;;;;;4796794;29;93256;-80
2023/03/14 09:14:15;;;;;;;8.75;2.90;;;19.80;64.70;;;;;;4793074;29;92752;-81
2023/03/14 09:16:41;;;;;;;8.32;2.72;;;19.80;64.60;;;;;;4792970;29;92362;-80
2023/03/14 09:19:07;;;;;;;8.15;2.75;;;19.80;64.70;;;;;;4794260;29;91364;-81
2023/03/14 09:21:32;;;;;;;6.80;2.30;;;19.90;64.60;;;;;;4792024;29;93068;-81
2023/03/14 09:23:58;;;;;;;8.15;2.55;;;19.90;64.50;;;;;;4792704;29;92705;-81
2023/03/14 09:26:24;;;;;;;11.88;2.72;;;19.90;64.20;;;;;;4791767;29;92982;-81
2023/03/14 09:28:49;;;;;;;8.02;2.78;;;19.80;64.30;;;;;;4791850;29;92024;-81
2023/03/14 09:31:16;;;;;;;8.70;2.70;;;19.90;64.40;;;;;;4791984;29;94407;-81
2023/03/14 09:33:41;;;;;;;6.85;2.35;;;19.80;64.10;;;;;;4783754;29;92816;-81
2023/03/14 09:36:07;;;;;;;9.27;2.70;;;19.90;64.20;;;;;;4791924;29;92721;-81
2023/03/14 09:38:34;;;;;;;7.18;2.35;;;19.90;64.20;;;;;;4792466;29;91990;-81
2023/03/14 09:41:02;;;;;;;6.80;2.80;;;19.80;64.10;;;;;;4793223;29;93402;-81
2023/03/14 09:43:31;;;;;;;9.95;2.83;;;19.80;64.10;;;;;;4793498;29;93085;-81
2023/03/14 09:45:58;;;;;;;;;;;19.90;64.20;;;;;;4792855;29;92544;-81
2023/03/14 09:48:29;;;;;;;9.10;3.15;;;19.90;64.30;;;;;;4794001;29;92506;-80
2023/03/14 09:50:57;;;;;;;7.20;2.60;;;19.80;63.40;;;;;;4794359;29;94648;-81
2023/03/14 09:53:27;;;;;;;9.40;2.58;;;19.90;62.90;;;;;;4793440;29;94335;-80
2023/03/14 09:55:55;;;;;;;7.93;2.55;;;19.90;63.00;;;;;;4793713;29;92361;-81
2023/03/14 09:58:25;;;;;;;10.98;3.53;;;19.90;63.20;;;;;;4790621;29;92779;-81
2023/03/14 10:00:55;;;;;;;10.52;2.85;;;19.90;62.90;;;;;;4792100;29;93375;-81
2023/03/14 10:03:32;;;;;;;12.73;3.10;;;19.90;63.20;;;;;;4792930;29;92990;-79
2023/03/14 10:05:58;;;;;;;8.95;2.78;;;19.90;63.50;;;;;;4792674;29;92098;-81
2023/03/14 10:08:24;;;;;;;12.48;2.88;;;19.80;63.20;;;;;;4793516;29;91235;-81
2023/03/14 10:10:54;;;;;;;7.35;2.40;;;19.90;62.80;;;;;;4795780;29;92884;-81
2023/03/14 10:13:26;;;;;;;6.45;2.63;;;19.90;62.70;;;;;;4800440;29;92852;-81
2023/03/14 10:16:01;;;;;;;8.68;2.15;;;19.90;62.90;;;;;;4801534;29;93075;-82
2023/03/14 10:18:29;;;;;;;6.22;2.25;;;19.80;63.10;;;;;;4802655;29;92470;-81
2023/03/14 10:21:26;;;;;;;5.40;2.38;;;19.80;63.20;;;;;;4801870;29;92460;-80
2023/03/14 10:23:52;;;;;;;9.82;2.63;;;19.80;63.10;;;;;;4709420;29;93080;-81
2023/03/14 10:26:24;;;;;;;6.72;2.67;;;19.90;63.10;;;;;;4710953;29;92165;-81
2023/03/14 10:29:01;;;;;;;6.78;2.30;;;19.80;63.00;;;;;;4710036;29;92189;-81
2023/03/14 10:31:26;;;;;;;8.73;2.47;;;20.00;62.40;;;;;;4709748;29;93646;-82
2023/03/14 10:34:01;;;;;;;9.23;2.63;;;20.00;62.70;;;;;;4709644;29;93270;-80
2023/03/14 10:36:34;;;;;;;8.95;2.35;;;20.00;62.50;;;;;;4709877;29;92204;-81
2023/03/14 10:39:23;;;;;;;6.50;2.63;;;20.00;63.20;;;;;;4710029;29;92503;-82
2023/03/14 10:45:31;;;;;;;7.47;2.88;;;19.90;63.40;;;;;;4709284;29;92868;-82
2023/03/14 10:48:06;;;;;;;5.43;2.05;;;19.90;63.60;;;;;;4710108;29;92618;-81
2023/03/14 10:50:31;;;;;;;5.78;2.60;;;19.90;63.60;;;;;;4709567;29;92730;-82
2023/03/14 10:53:05;;;;;;;6.30;2.45;;;19.90;63.80;;;;;;4709881;29;92647;-81
2023/03/14 10:55:41;;;;;;;10.23;2.60;;;19.80;63.60;;;;;;4708523;29;96683;-82
2023/03/14 10:58:39;;;;;;;7.53;2.35;;;19.80;64.00;;;;;;4710018;29;92429;-81
2023/03/14 11:01:14;;;;;;;4.63;2.13;;;19.80;64.00;;;;;;4772681;29;91933;-82
2023/03/14 11:03:47;;;;;;;9.57;2.80;;;20.00;64.20;;;;;;4801257;29;93488;-82
2023/03/14 11:06:20;;;;;;;7.28;2.63;;;20.00;64.00;;;;;;4801170;29;99443;-82
2023/03/14 11:09:05;;;;;;;8.80;2.63;;;20.10;63.70;;;;;;4799830;29;93849;-83
2023/03/14 11:11:31;;;;;;;6.10;2.40;;;20.20;63.50;;;;;;4800274;29;92161;-82
2023/03/14 11:14:11;;;;;;;4.85;2.30;;;20.30;63.10;;;;;;4801417;29;93061;-83
2023/03/14 11:16:54;;;;;;;5.43;2.20;;;20.40;62.90;;;;;;4800074;29;93256;-81
2023/03/14 11:19:41;;;;;;;7.03;2.40;;;20.50;63.20;;;;;;4800549;29;93071;-83
2023/03/14 11:22:25;;;;;;;8.32;2.33;;;20.50;62.20;;;;;;4800952;29;92483;-82
2023/03/14 11:25:09;;;;;;;5.53;2.08;;;20.50;62.10;;;;;;4800720;29;93211;-82
2023/03/14 11:27:42;;;;;;;6.30;2.45;;;20.60;62.10;;;;;;4799555;29;93155;-82
2023/03/14 11:30:31;;;;;;;9.30;2.60;;;20.60;61.50;;;;;;4800096;29;92633;-82
2023/03/14 11:33:16;;;;;;;6.18;2.28;;;20.60;61.30;;;;;;4800590;29;92487;-83
2023/03/14 11:35:42;;;;;;;7.20;2.42;;;20.60;61.80;;;;;;4799826;29;94475;-83
2023/03/14 11:38:27;;;;;;;6.57;2.05;;;20.50;61.80;;;;;;4802780;29;93684;-83
2023/03/14 11:40:54;;;;;;;6.90;2.40;;;20.40;61.40;;;;;;4802920;29;92793;-82
2023/03/14 11:43:42;;;;;;;10.98;3.20;;;20.40;61.50;;;;;;4801696;29;92477;-82
2023/03/14 11:46:16;;;;;;;10.75;2.78;;;20.40;61.40;;;;;;4800098;29;93760;-81
2023/03/14 11:49:01;;;;;;;12.95;3.25;;;20.40;61.00;;;;;;4798216;29;93121;-80
2023/03/14 11:51:34;;;;;;;12.35;3.65;;;20.30;61.60;;;;;;4799413;29;92223;-82
2023/03/14 11:54:15;;;;;;;11.27;3.45;;;20.20;61.80;;;;;;4801141;29;91728;-82
2023/03/14 11:56:58;;;;;;;10.65;3.40;;;20.20;61.90;;;;;;4799316;29;93292;-82
2023/03/14 11:59:31;;;;;;;7.28;2.97;;;20.10;61.90;;;;;;4799478;29;92806;-81
2023/03/14 12:02:29;;;;;;;9.93;3.13;;;20.10;62.10;;;;;;4799348;29;93446;-81
2023/03/14 12:05:28;;;;;;;5.32;2.22;;;20.20;62.10;;;;;;4798571;29;93015;-81
2023/03/14 12:08:08;;;;;;;9.77;3.67;;;20.30;61.40;;;;;;4799296;29;98064;-82
2023/03/14 12:10:48;;;;;;;8.18;2.90;;;20.30;61.20;;;;;;4798426;29;92796;-81
2023/03/14 12:13:15;;;;;;;8.75;3.63;;;20.30;61.10;;;;;;4798102;29;91988;-81
2023/03/14 12:15:48;;;;;;;10.55;3.03;;;20.30;61.00;;;;;;4796780;29;92065;-81
2023/03/14 12:18:31;;;;;;;8.02;2.97;;;20.30;60.50;;;;;;4797519;29;93246;-81
2023/03/14 12:21:04;;;;;;;7.45;2.80;;;20.30;61.20;;;;;;4796936;29;92962;-80
2023/03/14 12:23:44;;;;;;;8.32;2.97;;;20.30;60.80;;;;;;4780971;29;92710;-81
2023/03/14 12:26:35;;;;;;;5.10;2.63;;;20.30;60.70;;;;;;4798607;29;92524;-80
2023/03/14 12:29:08;;;;;;;7.18;2.58;;;20.30;61.20;;;;;;4796819;29;98708;-81
2023/03/14 12:32:07;;;;;;;8.75;2.80;;;20.30;61.00;;;;;;4796218;29;97587;-81
2023/03/14 12:34:40;;;;;;;4.65;2.33;;;20.40;61.00;;;;;;4743100;29;92288;-81
2023/03/14 12:37:23;;;;;;;8.57;3.13;;;20.30;61.20;;;;;;4741792;29;92742;-81
2023/03/14 12:40:14;;;;;;;5.97;2.20;;;20.20;61.20;;;;;;4743421;29;94017;-80
2023/03/14 12:42:52;;;;;;;9.10;3.22;;;20.30;62.00;;;;;;4745258;29;92715;-80
2023/03/14 12:45:29;;;;;;;7.75;2.72;;;20.30;61.40;;;;;;4741853;29;100677;-80
2023/03/14 12:47:59;;;;;;;7.22;2.88;;;20.30;61.10;;;;;;4745053;29;91783;-81
2023/03/14 12:50:35;;;;;;;8.65;2.67;;;20.30;61.50;;;;;;4742530;29;93261;-80
2023/03/14 12:53:23;;;;;;;5.60;2.50;;;20.30;61.60;;;;;;4743374;29;92839;-80
2023/03/14 12:56:07;;;;;;;5.75;2.38;;;20.20;61.70;;;;;;4744001;29;93228;-81
2023/03/14 12:58:47;;;;;;;6.55;2.35;;;20.20;61.60;;;;;;4741917;29;92584;-80
2023/03/14 13:01:18;;;;;;;7.40;3.13;;;20.20;61.20;;;;;;4740753;29;94403;-80